Time;durP1;ratioP1;P1;durP2;ratioP2;P2;SDS_P1;SDS_P2;PMS_P1;PMS_P2;Temp;Humidity;BMP_temperature;BMP_pressure;BME280_temperature;BME280_humidity;BME280_pressure;Samples;Min_cycle;Max_cycle;Signal;HPM_P1;HPM_P2
2020/12/13 00:01:26;;;;;;;37.07;20.40;;;;;;;5.06;83.71;99792.00;5045824;28;20207;-71
2020/12/13 00:03:52;;;;;;;37.50;20.43;;;;;;;5.07;83.75;99796.34;5049802;28;20225;-71
2020/12/13 00:06:18;;;;;;;37.53;20.57;;;;;;;5.07;83.61;99789.28;5050452;28;20197;-70
2020/12/13 00:08:44;;;;;;;39.13;20.20;;;;;;;5.06;84.00;99794.66;5050993;28;20201;-70
2020/12/13 00:11:11;;;;;;;38.43;21.63;;;;;;;5.07;83.78;99799.00;5050366;28;20211;-70
2020/12/13 00:13:37;;;;;;;39.03;20.67;;;;;;;5.07;84.22;99796.34;5050011;28;20568;-71
2020/12/13 00:16:03;;;;;;;39.63;21.00;;;;;;;5.06;83.83;99795.50;5048563;28;20201;-69
2020/12/13 00:18:29;;;;;;;39.90;20.30;;;;;;;5.08;84.00;99800.69;5050699;28;20304;-69
2020/12/13 00:20:55;;;;;;;35.90;20.70;;;;;;;5.08;84.18;99800.69;5050470;28;20205;-71
2020/12/13 00:23:21;;;;;;;37.53;19.87;;;;;;;5.07;83.91;99807.75;5043081;28;20205;-71
2020/12/13 00:25:48;;;;;;;33.97;19.50;;;;;;;5.09;84.22;99805.03;5049598;28;20229;-70
2020/12/13 00:28:14;;;;;;;37.37;22.20;;;;;;;5.08;84.11;99804.19;5049464;28;20209;-71
2020/12/13 00:30:40;;;;;;;38.47;20.13;;;;;;;5.09;84.22;99802.41;5050209;28;20198;-70
2020/12/13 00:33:07;;;;;;;38.13;20.30;;;;;;;5.09;84.45;99812.97;5049768;28;20202;-70
2020/12/13 00:35:33;;;;;;;37.13;20.87;;;;;;;5.10;84.47;99806.75;5045459;28;20255;-70
2020/12/13 00:37:59;;;;;;;37.43;21.43;;;;;;;5.09;84.30;99819.09;5050235;28;20596;-70
2020/12/13 00:40:25;;;;;;;39.97;21.33;;;;;;;5.09;84.45;99824.38;5044288;28;20205;-70
2020/12/13 00:42:51;;;;;;;42.87;21.07;;;;;;;5.08;84.62;99819.16;5049899;28;20232;-69
2020/12/13 00:45:18;;;;;;;45.03;22.10;;;;;;;5.09;84.41;99826.16;5049007;28;20234;-71
2020/12/13 00:47:44;;;;;;;43.57;22.20;;;;;;;5.09;84.37;99824.38;5047449;28;20206;-69
2020/12/13 00:50:10;;;;;;;41.90;22.10;;;;;;;5.09;84.76;99831.44;5049225;28;20198;-69
2020/12/13 00:52:39;;;;;;;41.00;20.30;;;;;;;5.10;84.55;99833.13;5047435;28;20209;-69
2020/12/13 00:55:06;;;;;;;42.87;22.23;;;;;;;5.09;84.78;99831.44;5052967;28;20937;-70
2020/12/13 00:57:32;;;;;;;40.73;21.43;;;;;;;5.09;84.75;99832.28;5048534;28;20713;-70
2020/12/13 00:59:58;;;;;;;44.47;22.27;;;;;;;5.11;84.88;99832.22;5053870;28;20205;-70
2020/12/13 01:02:25;;;;;;;40.87;21.97;;;;;;;5.10;84.94;99827.84;5051265;28;20216;-70
2020/12/13 01:04:52;;;;;;;39.07;20.53;;;;;;;5.11;84.80;99838.34;5051679;28;20226;-70
2020/12/13 01:07:18;;;;;;;36.83;20.67;;;;;;;5.10;84.90;99834.00;5050551;28;20229;-70
2020/12/13 01:09:44;;;;;;;39.40;21.00;;;;;;;5.10;84.77;99843.69;5053595;28;20209;-70
2020/12/13 01:12:11;;;;;;;38.80;20.07;;;;;;;5.10;84.99;99841.06;5048990;28;20210;-70
2020/12/13 01:14:37;;;;;;;39.57;21.40;;;;;;;5.10;85.16;99839.28;5053738;28;20698;-70
2020/12/13 01:17:03;;;;;;;36.50;20.10;;;;;;;5.10;84.91;99847.19;5051278;28;20222;-70
2020/12/13 01:19:29;;;;;;;40.40;21.03;;;;;;;5.11;84.94;99842.75;5052311;28;20205;-71
2020/12/13 01:21:56;;;;;;;38.77;20.70;;;;;;;5.10;84.97;99849.81;5050840;28;20205;-71
2020/12/13 01:24:22;;;;;;;43.67;22.10;;;;;;;5.10;84.89;99848.97;5052336;28;20225;-70
2020/12/13 01:26:48;;;;;;;42.40;22.30;;;;;;;5.09;85.18;99852.53;5053438;28;20759;-71
2020/12/13 01:29:14;;;;;;;43.03;21.63;;;;;;;5.08;85.23;99856.97;5052726;28;20681;-70
2020/12/13 01:31:40;;;;;;;38.67;20.63;;;;;;;5.08;85.46;99854.34;5052363;28;20213;-69
2020/12/13 01:34:07;;;;;;;42.53;21.27;;;;;;;5.09;85.18;99853.41;5049266;28;20626;-71
2020/12/13 01:36:34;;;;;;;38.67;20.90;;;;;;;5.09;85.28;99861.31;5052035;28;20709;-70
2020/12/13 01:39:00;;;;;;;41.93;22.17;;;;;;;5.09;85.42;99863.94;5053160;28;20207;-71
2020/12/13 01:41:26;;;;;;;44.43;21.53;;;;;;;5.10;85.35;99851.63;5048991;28;20202;-70
2020/12/13 01:43:58;;;;;;;41.87;22.67;;;;;;;5.09;85.50;99853.41;5049534;28;20617;-70
2020/12/13 01:46:25;;;;;;;45.80;22.37;;;;;;;5.09;85.50;99863.94;5050408;28;20222;-71
2020/12/13 01:48:55;;;;;;;45.13;21.77;;;;;;;5.09;85.22;99853.41;5051968;28;20662;-73
2020/12/13 01:51:30;;;;;;;47.03;22.90;;;;;;;5.08;85.25;99856.13;5049611;28;20213;-71
2020/12/13 01:54:00;;;;;;;47.27;22.70;;;;;;;5.07;85.37;99852.63;5048596;28;20602;-70
2020/12/13 01:56:30;;;;;;;43.63;22.20;;;;;;;5.08;85.37;99856.97;5051406;28;20212;-71
2020/12/13 01:58:59;;;;;;;45.60;23.00;;;;;;;5.07;85.59;99854.41;5051469;28;20206;-71
2020/12/13 02:01:28;;;;;;;44.90;22.80;;;;;;;5.07;85.75;99854.41;5051445;28;20197;-68
2020/12/13 02:03:58;;;;;;;42.20;22.93;;;;;;;5.07;85.42;99864.97;5050371;28;20596;-70
2020/12/13 02:06:27;;;;;;;42.73;21.80;;;;;;;5.07;85.66;99870.25;5052714;28;20654;-70
2020/12/13 02:08:53;;;;;;;44.83;23.73;;;;;;;5.07;85.80;99867.59;5054411;28;20201;-70
2020/12/13 02:11:20;;;;;;;42.30;21.97;;;;;;;5.07;85.54;99875.53;5049626;28;20202;-70
2020/12/13 02:13:48;;;;;;;41.97;22.93;;;;;;;5.08;85.90;99871.94;5050414;28;20584;-72
2020/12/13 02:16:15;;;;;;;44.77;23.27;;;;;;;5.07;85.73;99870.25;5053982;28;20229;-71
2020/12/13 02:18:42;;;;;;;43.43;21.77;;;;;;;5.07;85.97;99867.59;5050057;28;20202;-69
2020/12/13 02:21:10;;;;;;;47.23;22.73;;;;;;;5.06;85.87;99866.75;5042607;28;20213;-70
2020/12/13 02:23:39;;;;;;;42.43;21.93;;;;;;;5.07;85.49;99868.47;5050740;28;20293;-69
2020/12/13 02:26:05;;;;;;;46.47;22.07;;;;;;;5.08;86.01;99879.88;5040876;28;20209;-70
2020/12/13 02:28:31;;;;;;;41.33;21.40;;;;;;;5.07;86.03;99886.94;5045036;28;20235;-70
2020/12/13 02:30:57;;;;;;;46.27;22.03;;;;;;;5.07;86.01;99900.13;5045848;28;20206;-69
2020/12/13 02:33:23;;;;;;;45.70;23.17;;;;;;;5.09;85.71;99905.34;5041791;28;20202;-70
2020/12/13 02:35:49;;;;;;;47.23;23.30;;;;;;;5.09;85.80;99897.41;5046677;28;20225;-69
2020/12/13 02:38:15;;;;;;;46.57;23.40;;;;;;;5.09;85.77;99902.69;5048490;28;20218;-70
2020/12/13 02:40:42;;;;;;;47.63;23.37;;;;;;;5.09;85.99;99905.34;5047756;28;20312;-70
2020/12/13 02:43:08;;;;;;;45.13;22.73;;;;;;;5.08;86.02;99899.19;5051428;28;20210;-70
2020/12/13 02:45:34;;;;;;;50.40;24.00;;;;;;;5.08;86.02;99908.91;5053471;28;20241;-70
2020/12/13 02:48:00;;;;;;;46.57;22.33;;;;;;;5.07;85.72;99907.19;5051909;28;20205;-69
2020/12/13 02:50:26;;;;;;;49.37;22.63;;;;;;;5.05;86.20;99904.63;5052694;28;20292;-70
2020/12/13 02:52:52;;;;;;;46.37;23.00;;;;;;;5.05;85.96;99904.63;5048233;28;20198;-69
2020/12/13 02:55:18;;;;;;;44.07;22.70;;;;;;;5.05;86.16;99903.78;5042679;28;20218;-70
2020/12/13 02:57:45;;;;;;;44.57;23.37;;;;;;;5.05;85.95;99898.50;5052565;28;20237;-69
2020/12/13 03:00:11;;;;;;;43.03;22.50;;;;;;;5.04;86.14;99902.06;5052779;28;20212;-70
2020/12/13 03:02:37;;;;;;;49.73;22.77;;;;;;;5.02;86.36;99907.44;5038635;28;20247;-69
2020/12/13 03:05:03;;;;;;;46.80;23.23;;;;;;;5.02;86.34;99906.56;5051600;28;20221;-69
2020/12/13 03:07:29;;;;;;;46.03;22.90;;;;;;;5.03;86.25;99903.00;5052316;28;20216;-70
2020/12/13 03:09:55;;;;;;;47.50;22.20;;;;;;;5.04;86.22;99904.72;5048980;28;20203;-69
2020/12/13 03:12:21;;;;;;;46.13;22.37;;;;;;;5.04;86.03;99910.00;5041861;28;20212;-70
2020/12/13 03:14:48;;;;;;;44.60;22.60;;;;;;;5.02;86.53;99909.22;5052248;28;20585;-70
2020/12/13 03:17:14;;;;;;;46.90;22.43;;;;;;;5.04;86.23;99917.91;5051918;28;20221;-70
2020/12/13 03:19:40;;;;;;;46.83;21.77;;;;;;;5.04;86.42;99908.19;5052972;28;20205;-69
2020/12/13 03:22:06;;;;;;;45.67;23.27;;;;;;;5.05;86.42;99909.06;5050252;28;20197;-69
2020/12/13 03:24:32;;;;;;;46.63;21.70;;;;;;;5.04;86.42;99907.34;5046593;28;20227;-70
2020/12/13 03:26:58;;;;;;;47.43;22.43;;;;;;;5.05;86.66;99909.91;5052456;28;20205;-69
2020/12/13 03:29:24;;;;;;;45.30;22.27;;;;;;;5.05;86.56;99912.56;5051735;28;20201;-70
2020/12/13 03:31:51;;;;;;;44.83;22.00;;;;;;;5.06;86.71;99910.75;5035965;28;20213;-69
2020/12/13 03:34:17;;;;;;;51.23;22.63;;;;;;;5.06;86.61;99919.53;5051517;28;20225;-70
2020/12/13 03:36:43;;;;;;;44.57;21.17;;;;;;;5.06;86.58;99921.31;5051661;28;20229;-69
2020/12/13 03:39:09;;;;;;;47.13;23.10;;;;;;;5.08;86.64;99924.75;5052101;28;20213;-70
2020/12/13 03:41:35;;;;;;;43.07;21.47;;;;;;;5.08;86.73;99933.50;5036823;28;20237;-69
2020/12/13 03:44:01;;;;;;;45.67;21.97;;;;;;;5.09;86.55;99937.84;5049303;28;20225;-69
2020/12/13 03:46:27;;;;;;;41.70;21.20;;;;;;;5.10;86.73;99944.00;5047595;28;20220;-69
2020/12/13 03:48:54;;;;;;;40.87;19.33;;;;;;;5.10;86.82;99944.00;5052295;28;20212;-70
2020/12/13 03:51:20;;;;;;;40.37;20.07;;;;;;;5.10;86.83;99944.00;5052069;28;20547;-70
2020/12/13 03:53:46;;;;;;;37.57;19.03;;;;;;;5.10;86.59;99944.00;5050772;28;20209;-70
2020/12/13 03:56:12;;;;;;;43.83;20.53;;;;;;;5.11;86.74;99951.84;5037210;28;20692;-70
2020/12/13 03:58:38;;;;;;;38.43;20.23;;;;;;;5.12;86.87;99961.47;5052060;28;20222;-69
2020/12/13 04:01:05;;;;;;;39.30;20.27;;;;;;;5.13;87.09;99957.88;5051402;28;20204;-68
2020/12/13 04:03:31;;;;;;;39.03;19.87;;;;;;;5.14;86.93;99966.66;5051164;28;20198;-70
2020/12/13 04:05:58;;;;;;;36.93;18.73;;;;;;;5.13;86.70;99954.38;5036863;28;20207;-69
2020/12/13 04:08:24;;;;;;;39.83;19.70;;;;;;;5.14;86.85;99964.88;5051583;28;20204;-71
2020/12/13 04:10:50;;;;;;;34.30;19.50;;;;;;;5.13;86.76;99970.22;5051392;28;20215;-70
2020/12/13 04:13:16;;;;;;;37.07;18.53;;;;;;;5.12;86.92;99972.00;5036708;28;20206;-71
2020/12/13 04:15:42;;;;;;;39.33;20.03;;;;;;;5.12;86.64;99964.09;5051136;28;20221;-70
2020/12/13 04:18:08;;;;;;;42.43;19.00;;;;;;;5.13;86.88;99968.44;5048021;28;20245;-71
2020/12/13 04:20:34;;;;;;;34.27;18.13;;;;;;;5.17;86.96;99977.06;5031654;28;20202;-70
2020/12/13 04:23:01;;;;;;;35.17;18.47;;;;;;;5.16;87.01;99972.72;5044976;28;20571;-69
2020/12/13 04:25:27;;;;;;;36.90;18.57;;;;;;;5.17;86.82;99966.50;5050041;28;20588;-69
2020/12/13 04:27:53;;;;;;;32.10;17.60;;;;;;;5.18;86.80;99970.84;5053979;28;20209;-70
2020/12/13 04:30:19;;;;;;;34.57;18.23;;;;;;;5.19;87.48;99967.28;5051957;28;20208;-69
2020/12/13 04:32:46;;;;;;;34.03;17.57;;;;;;;5.20;87.17;99966.31;5055301;28;20729;-70
2020/12/13 04:35:12;;;;;;;32.70;17.30;;;;;;;5.21;87.10;99970.66;5054445;28;20600;-70
2020/12/13 04:37:38;;;;;;;35.23;17.97;;;;;;;5.22;87.06;99969.72;5055585;28;20217;-70
2020/12/13 04:40:06;;;;;;;34.97;18.53;;;;;;;5.23;87.05;99971.44;5040762;28;20202;-70
2020/12/13 04:42:35;;;;;;;31.27;17.83;;;;;;;5.23;86.96;99969.66;5047215;28;20204;-70
2020/12/13 04:45:01;;;;;;;33.23;17.13;;;;;;;5.26;87.03;99975.72;5048198;28;20255;-70
2020/12/13 04:47:29;;;;;;;32.63;18.43;;;;;;;5.27;87.24;99974.78;5053250;28;20292;-69
2020/12/13 04:49:55;;;;;;;33.50;18.23;;;;;;;5.27;87.13;99980.91;5054992;28;20209;-71
2020/12/13 04:52:22;;;;;;;32.17;17.23;;;;;;;5.29;87.31;99980.84;5053251;28;20206;-71
2020/12/13 04:54:49;;;;;;;35.03;18.43;;;;;;;5.29;87.11;99976.41;5053791;28;20226;-70
2020/12/13 04:57:16;;;;;;;35.80;17.40;;;;;;;5.30;87.28;99986.03;5054538;28;20229;-70
2020/12/13 04:59:42;;;;;;;29.07;16.80;;;;;;;5.31;87.08;99986.91;5054560;28;20211;-70
2020/12/13 05:02:11;;;;;;;33.30;17.87;;;;;;;5.32;87.21;99986.81;5052415;28;20205;-69
2020/12/13 05:04:37;;;;;;;28.97;16.23;;;;;;;5.33;87.42;99980.59;5049307;28;20273;-71
2020/12/13 05:07:03;;;;;;;31.30;17.90;;;;;;;5.33;87.25;99988.53;5048090;28;20198;-73
2020/12/13 05:09:29;;;;;;;31.70;18.03;;;;;;;5.33;87.30;99996.44;5054296;28;20214;-70
2020/12/13 05:11:55;;;;;;;34.17;18.50;;;;;;;5.33;87.38;100001.72;5053770;28;20205;-70
2020/12/13 05:14:22;;;;;;;30.30;17.03;;;;;;;5.35;87.18;99991.94;5054251;28;20226;-70
2020/12/13 05:16:49;;;;;;;34.20;18.37;;;;;;;5.36;87.33;100001.56;5051599;28;20201;-71
2020/12/13 05:19:15;;;;;;;34.47;17.87;;;;;;;5.37;87.41;100005.94;5054519;28;20202;-71
2020/12/13 05:21:43;;;;;;;35.30;18.73;;;;;;;5.37;87.50;100010.34;5051715;28;20223;-70
2020/12/13 05:24:09;;;;;;;32.97;18.57;;;;;;;5.38;87.53;100012.03;5036538;28;20226;-71
2020/12/13 05:26:35;;;;;;;36.33;20.10;;;;;;;5.39;87.31;100017.22;5036746;28;20284;-71
2020/12/13 05:29:05;;;;;;;36.30;18.87;;;;;;;5.39;87.41;100014.59;5037634;28;20206;-71
2020/12/13 05:31:40;;;;;;;35.67;19.17;;;;;;;5.41;87.48;100011.88;5045848;28;20205;-71
2020/12/13 05:34:15;;;;;;;35.93;19.17;;;;;;;5.41;87.49;100019.78;5054270;28;20643;-71
2020/12/13 05:36:43;;;;;;;37.03;20.23;;;;;;;5.42;87.47;100018.88;5053030;28;20211;-71
2020/12/13 05:39:09;;;;;;;40.27;19.53;;;;;;;5.43;87.86;100025.84;5037339;28;20195;-72
2020/12/13 05:41:37;;;;;;;39.77;20.47;;;;;;;5.44;87.44;100027.56;5034392;28;20206;-69
2020/12/13 05:44:10;;;;;;;36.00;19.27;;;;;;;5.45;87.43;100029.28;5051488;28;20230;-71
2020/12/13 05:46:51;;;;;;;35.73;18.47;;;;;;;5.46;87.64;100037.13;5045080;28;20217;-71
2020/12/13 05:49:47;;;;;;;33.90;18.10;;;;;;;5.46;87.49;100034.47;5037155;28;20555;-72
2020/12/13 05:52:14;;;;;;;34.60;19.13;;;;;;;5.47;87.45;100032.69;5049570;28;20238;-71
2020/12/13 05:54:40;;;;;;;35.87;18.50;;;;;;;5.46;87.39;100030.97;5053649;28;20282;-71
2020/12/13 05:57:10;;;;;;;40.10;19.13;;;;;;;5.45;87.09;100032.78;5040030;28;20230;-70
2020/12/13 05:59:36;;;;;;;37.67;19.10;;;;;;;5.46;87.55;100033.63;5053242;28;20212;-71
2020/12/13 06:02:03;;;;;;;35.87;18.90;;;;;;;5.47;87.47;100035.34;5053647;28;20208;-71
2020/12/13 06:04:30;;;;;;;35.57;19.00;;;;;;;5.47;87.54;100038.81;5053658;28;20222;-71
2020/12/13 06:06:58;;;;;;;35.60;18.83;;;;;;;5.48;87.47;100042.31;5053588;28;20589;-71
2020/12/13 06:09:32;;;;;;;32.83;18.57;;;;;;;5.48;87.42;100039.69;5049359;28;20209;-71
2020/12/13 06:12:01;;;;;;;34.57;19.57;;;;;;;5.49;87.83;100046.69;5044155;28;20228;-71
2020/12/13 06:14:27;;;;;;;37.47;19.57;;;;;;;5.48;87.18;100035.25;5053506;28;20351;-71
2020/12/13 06:16:53;;;;;;;40.87;19.20;;;;;;;5.49;87.46;100039.59;5050395;28;20218;-70
2020/12/13 06:19:23;;;;;;;30.40;18.23;;;;;;;5.51;87.45;100044.81;5043451;28;20212;-70
2020/12/13 06:21:50;;;;;;;37.90;20.20;;;;;;;5.50;87.53;100048.38;5052386;28;20644;-71
2020/12/13 06:24:17;;;;;;;36.47;20.00;;;;;;;5.51;87.55;100050.94;5053398;28;20228;-70
2020/12/13 06:26:44;;;;;;;36.57;19.10;;;;;;;5.51;87.61;100045.66;5053282;28;20212;-71
2020/12/13 06:29:10;;;;;;;39.53;19.63;;;;;;;5.51;87.40;100050.94;5053108;28;20202;-71
2020/12/13 06:31:38;;;;;;;39.13;20.23;;;;;;;5.52;87.62;100041.25;5042817;28;20205;-70
2020/12/13 06:34:05;;;;;;;39.13;19.97;;;;;;;5.52;87.54;100050.03;5052235;28;20739;-71
2020/12/13 06:36:34;;;;;;;41.07;20.93;;;;;;;5.53;87.69;100050.88;5050564;28;20198;-71
2020/12/13 06:39:01;;;;;;;39.20;18.53;;;;;;;5.53;87.77;100048.22;5052146;28;20233;-70
2020/12/13 06:41:29;;;;;;;35.87;18.53;;;;;;;5.53;87.67;100054.38;5051053;28;20669;-70
2020/12/13 06:44:02;;;;;;;39.43;19.57;;;;;;;5.54;87.72;100048.16;5052300;28;20260;-70
2020/12/13 06:46:29;;;;;;;39.40;20.60;;;;;;;5.54;87.65;100061.34;5045700;28;20230;-71
2020/12/13 06:48:56;;;;;;;36.13;19.17;;;;;;;5.54;87.38;100061.34;5051936;28;20209;-69
2020/12/13 06:51:26;;;;;;;40.93;19.97;;;;;;;5.55;87.41;100068.31;5052995;28;20213;-69
2020/12/13 06:53:54;;;;;;;41.03;19.87;;;;;;;5.55;87.33;100067.50;5049854;28;20592;-71
2020/12/13 06:56:21;;;;;;;41.77;21.17;;;;;;;5.55;87.66;100067.50;5041309;28;20205;-71
2020/12/13 06:58:55;;;;;;;38.83;20.17;;;;;;;5.55;87.71;100084.16;5040840;28;20228;-71
2020/12/13 07:01:23;;;;;;;37.60;20.90;;;;;;;5.57;87.87;100086.72;5041545;28;20259;-69
2020/12/13 07:03:50;;;;;;;35.90;19.83;;;;;;;5.57;87.68;100081.44;5051846;28;20241;-71
2020/12/13 07:06:22;;;;;;;41.73;20.67;;;;;;;5.58;87.69;100089.28;5050598;28;20201;-71
2020/12/13 07:08:53;;;;;;;69.40;29.03;;;;;;;5.59;87.73;100087.50;5052803;28;20206;-70
2020/12/13 07:11:22;;;;;;;72.20;29.60;;;;;;;5.59;87.68;100091.00;5050712;28;20198;-70
2020/12/13 07:13:49;;;;;;;57.80;26.80;;;;;;;5.59;87.77;100092.78;5045052;28;20230;-71
2020/12/13 07:16:34;;;;;;;53.67;25.13;;;;;;;5.59;87.76;100101.56;5034099;28;20687;-70
2020/12/13 07:19:03;;;;;;;46.50;23.33;;;;;;;5.61;88.02;100095.34;5049585;28;20320;-70
2020/12/13 07:21:30;;;;;;;46.97;22.57;;;;;;;5.62;87.67;100105.00;5048413;28;20197;-73
2020/12/13 07:23:59;;;;;;;45.37;21.07;;;;;;;5.62;87.92;100110.28;5050977;28;20225;-70
2020/12/13 07:26:27;;;;;;;48.40;22.70;;;;;;;5.62;87.92;100105.84;5051366;28;20227;-71
2020/12/13 07:28:54;;;;;;;45.47;23.40;;;;;;;5.63;87.70;100112.84;5051986;28;20198;-71
2020/12/13 07:31:22;;;;;;;49.60;23.10;;;;;;;5.64;87.45;100111.06;5043939;28;20193;-72
2020/12/13 07:33:48;;;;;;;42.13;21.87;;;;;;;5.65;87.75;100123.34;5043797;28;20204;-70
2020/12/13 07:36:14;;;;;;;40.13;21.17;;;;;;;5.65;87.88;100123.34;5047768;28;20205;-71
2020/12/13 07:38:41;;;;;;;44.87;22.80;;;;;;;5.65;88.02;100124.19;5049353;28;20244;-71
2020/12/13 07:41:18;;;;;;;47.30;24.63;;;;;;;5.66;87.75;100128.53;5048978;28;20209;-71
2020/12/13 07:43:59;;;;;;;61.07;29.87;;;;;;;5.65;88.01;100131.25;5050171;28;20205;-74
2020/12/13 07:46:27;;;;;;;56.07;28.70;;;;;;;5.66;87.85;100141.75;5040958;28;20209;-71
2020/12/13 07:49:05;;;;;;;59.50;28.23;;;;;;;5.65;87.79;100140.03;5049909;28;20197;-70
2020/12/13 07:51:31;;;;;;;63.97;30.67;;;;;;;5.67;87.96;100145.25;5046545;28;20194;-71
2020/12/13 07:54:08;;;;;;;56.13;29.60;;;;;;;5.67;87.95;100147.88;5049435;28;20225;-70
2020/12/13 07:56:34;;;;;;;55.73;26.03;;;;;;;5.67;87.81;100147.88;5049602;28;20209;-71
2020/12/13 07:59:09;;;;;;;56.13;27.07;;;;;;;5.68;88.03;100147.81;5050496;28;20320;-72
2020/12/13 08:01:35;;;;;;;52.00;25.30;;;;;;;5.68;87.93;100150.47;5046998;28;20665;-70
2020/12/13 08:04:01;;;;;;;50.30;24.57;;;;;;;5.69;87.88;100149.53;5047771;28;20338;-70
2020/12/13 08:06:27;;;;;;;43.70;23.33;;;;;;;5.70;87.69;100155.66;5046369;28;20209;-70
2020/12/13 08:08:53;;;;;;;46.80;22.80;;;;;;;5.71;88.16;100165.31;5049310;28;20201;-71
2020/12/13 08:11:20;;;;;;;44.10;23.40;;;;;;;5.71;87.88;100165.31;5050397;28;20201;-71
2020/12/13 08:13:48;;;;;;;43.80;21.97;;;;;;;5.72;88.17;100165.22;5050000;28;20213;-70
2020/12/13 08:16:16;;;;;;;43.10;20.97;;;;;;;5.72;87.94;100159.94;5048694;28;20280;-71
2020/12/13 08:18:45;;;;;;;42.63;21.53;;;;;;;5.72;88.03;100165.22;5049799;28;20229;-70
2020/12/13 08:21:14;;;;;;;43.33;21.70;;;;;;;5.73;88.04;100172.19;5049529;28;20565;-70
2020/12/13 08:23:41;;;;;;;42.63;20.97;;;;;;;5.74;87.84;100175.69;5046756;28;20216;-71
2020/12/13 08:26:09;;;;;;;46.73;21.73;;;;;;;5.74;87.90;100175.69;5047481;28;20205;-70
2020/12/13 08:28:38;;;;;;;40.47;21.20;;;;;;;5.75;88.20;100177.41;5049854;28;20202;-71
2020/12/13 08:31:11;;;;;;;45.10;21.10;;;;;;;5.77;88.44;100180.81;5046765;28;20210;-70
2020/12/13 08:33:38;;;;;;;48.60;22.23;;;;;;;5.77;88.29;100181.69;5050097;28;20259;-73
2020/12/13 08:36:17;;;;;;;52.37;22.37;;;;;;;5.79;88.30;100176.31;5050720;28;20574;-70
2020/12/13 08:38:43;;;;;;;49.97;22.73;;;;;;;5.81;88.25;100190.31;5050420;28;20256;-70
2020/12/13 08:41:12;;;;;;;45.83;21.30;;;;;;;5.82;88.33;100192.03;5050478;28;20208;-71
2020/12/13 08:43:39;;;;;;;43.53;21.93;;;;;;;5.83;88.18;100191.94;5049179;28;20209;-70
2020/12/13 08:46:05;;;;;;;48.37;23.17;;;;;;;5.85;88.41;100191.88;5046244;28;20210;-70
2020/12/13 08:48:31;;;;;;;46.37;22.27;;;;;;;5.86;88.45;100193.56;5045267;28;20197;-71
2020/12/13 08:51:06;;;;;;;53.13;23.63;;;;;;;5.89;88.39;100193.47;5048548;28;20217;-71
2020/12/13 08:53:32;;;;;;;52.40;24.87;;;;;;;5.89;88.35;100202.25;5047568;28;20205;-71
2020/12/13 08:56:02;;;;;;;52.63;24.70;;;;;;;5.92;87.87;100207.34;5049175;28;20678;-71
2020/12/13 08:58:28;;;;;;;53.57;24.20;;;;;;;5.93;88.35;100205.56;5047435;28;20231;-71
2020/12/13 09:01:04;;;;;;;55.57;24.97;;;;;;;5.96;88.31;100215.97;5048707;28;20220;-71
2020/12/13 09:03:30;;;;;;;53.83;23.07;;;;;;;5.98;88.37;100215.91;5047406;28;20216;-71
2020/12/13 09:05:56;;;;;;;50.70;24.13;;;;;;;6.00;88.66;100217.53;5044622;28;20587;-71
2020/12/13 09:08:24;;;;;;;49.67;24.07;;;;;;;6.02;88.61;100223.59;5047970;28;20219;-71
2020/12/13 09:10:52;;;;;;;55.80;24.43;;;;;;;6.06;88.75;100238.38;5048070;28;20586;-70
2020/12/13 09:13:18;;;;;;;55.90;24.67;;;;;;;6.10;88.74;100239.06;5048519;28;20198;-71
2020/12/13 09:15:44;;;;;;;53.13;22.10;;;;;;;6.14;88.22;100236.19;5049021;28;20227;-70
2020/12/13 09:18:11;;;;;;;48.93;21.37;;;;;;;6.18;88.84;100242.19;5052226;28;20221;-69
2020/12/13 09:20:37;;;;;;;44.70;21.97;;;;;;;6.21;88.55;100247.31;5049838;28;20256;-70
2020/12/13 09:23:04;;;;;;;40.63;21.00;;;;;;;6.26;88.52;100246.16;5051828;28;20647;-70
2020/12/13 09:25:36;;;;;;;45.27;20.53;;;;;;;6.30;88.71;100251.25;5052739;28;20229;-70
2020/12/13 09:28:03;;;;;;;45.20;20.17;;;;;;;6.33;88.83;100253.75;5053718;28;20197;-70
2020/12/13 09:30:29;;;;;;;39.67;19.43;;;;;;;6.37;88.76;100250.00;5050045;28;20582;-70
2020/12/13 09:32:55;;;;;;;41.77;20.47;;;;;;;6.40;88.68;100249.84;5052575;28;20676;-71
2020/12/13 09:35:21;;;;;;;38.10;19.20;;;;;;;6.42;89.12;100250.63;5052639;28;20223;-70
2020/12/13 09:37:48;;;;;;;38.63;17.87;;;;;;;6.46;89.10;100249.50;5052439;28;20218;-71
2020/12/13 09:40:14;;;;;;;36.00;18.83;;;;;;;6.49;89.13;100255.50;5052557;28;20583;-71
2020/12/13 09:42:41;;;;;;;36.50;19.33;;;;;;;6.53;88.66;100245.63;5049762;28;20210;-71
2020/12/13 09:45:07;;;;;;;36.67;19.30;;;;;;;6.58;88.77;100259.47;5052045;28;20235;-70
2020/12/13 09:47:33;;;;;;;37.70;19.20;;;;;;;6.61;88.92;100267.25;5051272;28;20201;-71
2020/12/13 09:49:59;;;;;;;34.87;19.17;;;;;;;6.66;88.67;100262.53;5052916;28;20212;-71
2020/12/13 09:52:25;;;;;;;38.70;19.40;;;;;;;6.70;89.32;100258.81;5051643;28;20210;-71
2020/12/13 09:54:51;;;;;;;39.93;18.53;;;;;;;6.74;89.30;100257.72;5051740;28;20221;-71
2020/12/13 09:57:17;;;;;;;39.77;19.27;;;;;;;6.78;89.22;100253.09;5052813;28;20208;-70
2020/12/13 09:59:56;;;;;;;39.53;18.03;;;;;;;6.82;89.22;100263.44;5050223;28;20206;-70
2020/12/13 10:02:22;;;;;;;39.40;19.17;;;;;;;6.87;88.57;100264.03;5050418;28;20198;-71
2020/12/13 10:04:48;;;;;;;38.37;19.70;;;;;;;6.90;89.28;100263.88;5046469;28;20230;-70
2020/12/13 10:07:32;;;;;;;40.33;19.80;;;;;;;6.95;88.57;100267.13;5047853;28;20252;-71
2020/12/13 10:09:57;;;;;;;41.63;19.33;;;;;;;7.00;89.33;100271.31;5051283;28;20251;-71
2020/12/13 10:12:23;;;;;;;41.13;19.50;;;;;;;7.04;89.00;100271.06;5052087;28;20237;-70
2020/12/13 10:14:50;;;;;;;47.90;19.77;;;;;;;7.08;88.76;100266.47;5046991;28;20309;-70
2020/12/13 10:17:17;;;;;;;43.97;19.60;;;;;;;7.12;88.68;100268.84;5051947;28;20212;-70
2020/12/13 10:19:43;;;;;;;43.73;19.27;;;;;;;7.16;88.87;100270.41;5050165;28;20237;-70
2020/12/13 10:22:10;;;;;;;46.27;22.17;;;;;;;7.20;89.11;100281.66;5047110;28;20202;-71
2020/12/13 10:24:36;;;;;;;48.07;22.77;;;;;;;7.23;89.21;100271.75;5052758;28;20248;-70
2020/12/13 10:27:02;;;;;;;41.93;19.23;;;;;;;7.27;88.37;100275.09;5048197;28;20208;-71
2020/12/13 10:29:28;;;;;;;52.73;22.90;;;;;;;7.29;88.79;100276.72;5050105;28;20198;-71
2020/12/13 10:31:54;;;;;;;54.87;25.60;;;;;;;7.34;88.66;100275.63;5045842;28;20225;-71
2020/12/13 10:34:21;;;;;;;45.40;22.73;;;;;;;7.35;88.43;100275.50;5050491;28;20225;-70
2020/12/13 10:36:49;;;;;;;43.03;20.57;;;;;;;7.37;89.01;100268.34;5042100;28;20591;-70
2020/12/13 10:39:19;;;;;;;40.10;20.13;;;;;;;7.40;88.84;100268.16;5050899;28;20320;-71
2020/12/13 10:41:45;;;;;;;37.30;19.80;;;;;;;7.41;88.30;100269.88;5048795;28;20240;-70
2020/12/13 10:44:14;;;;;;;42.67;20.07;;;;;;;7.42;89.12;100268.94;5051202;28;20225;-71
2020/12/13 10:46:40;;;;;;;40.73;20.30;;;;;;;7.45;88.14;100271.41;5047726;28;20690;-70
2020/12/13 10:49:09;;;;;;;40.27;20.27;;;;;;;7.46;88.27;100275.78;5048795;28;20698;-71
2020/12/13 10:51:36;;;;;;;45.63;20.17;;;;;;;7.48;88.27;100273.03;5047520;28;20229;-71
2020/12/13 10:54:02;;;;;;;41.20;20.80;;;;;;;7.47;88.73;100266.88;5048816;28;20226;-71
2020/12/13 10:56:28;;;;;;;39.43;20.67;;;;;;;7.49;88.60;100272.09;5042357;28;20202;-70
2020/12/13 10:58:54;;;;;;;37.33;19.20;;;;;;;7.51;87.66;100268.44;5037422;28;20249;-71
2020/12/13 11:01:20;;;;;;;37.50;19.20;;;;;;;7.52;87.64;100275.44;5052995;28;20225;-69
2020/12/13 11:03:46;;;;;;;44.50;19.43;;;;;;;7.53;88.23;100285.06;5052534;28;20216;-70
2020/12/13 11:06:12;;;;;;;38.43;19.33;;;;;;;7.53;88.42;100277.13;5035428;28;20206;-70
2020/12/13 11:08:39;;;;;;;36.10;18.83;;;;;;;7.54;88.10;100278.81;5044162;28;20206;-70
2020/12/13 11:11:06;;;;;;;40.53;19.83;;;;;;;7.54;87.37;100281.47;5036078;28;20210;-70
2020/12/13 11:13:32;;;;;;;41.93;19.03;;;;;;;7.54;87.66;100281.47;5051800;28;20574;-71
2020/12/13 11:15:58;;;;;;;35.70;18.73;;;;;;;7.56;88.45;100273.44;5052526;28;20283;-71
2020/12/13 11:18:29;;;;;;;43.90;19.57;;;;;;;7.59;87.90;100283.88;5050705;28;20344;-70
2020/12/13 11:20:55;;;;;;;47.53;21.43;;;;;;;7.59;87.81;100271.47;5041408;28;20216;-69
2020/12/13 11:23:21;;;;;;;44.90;20.43;;;;;;;7.62;87.96;100284.56;5051137;28;20197;-70